sensor_id;sensor_type;location;lat;lon;timestamp;P1;durP1;ratioP1;P2;durP2;ratioP2
19127;SDS011;9696;53.686;10.094;2023-04-28T00:00:56;11.73;;;5.90;;
19127;SDS011;9696;53.686;10.094;2023-04-28T00:03:25;9.23;;;6.37;;
19127;SDS011;9696;53.686;10.094;2023-04-28T00:05:54;11.00;;;6.13;;
19127;SDS011;9696;53.686;10.094;2023-04-28T00:08:24;12.00;;;6.37;;
19127;SDS011;9696;53.686;10.094;2023-04-28T00:10:53;13.37;;;6.23;;
19127;SDS011;9696;53.686;10.094;2023-04-28T00:13:23;13.60;;;6.50;;
19127;SDS011;9696;53.686;10.094;2023-04-28T00:15:53;11.20;;;6.87;;
19127;SDS011;9696;53.686;10.094;2023-04-28T00:18:22;10.37;;;6.63;;
19127;SDS011;9696;53.686;10.094;2023-04-28T00:20:51;9.63;;;5.80;;
19127;SDS011;9696;53.686;10.094;2023-04-28T00:23:20;10.30;;;5.67;;
19127;SDS011;9696;53.686;10.094;2023-04-28T00:25:50;11.33;;;5.63;;
19127;SDS011;9696;53.686;10.094;2023-04-28T00:28:19;11.77;;;6.00;;
19127;SDS011;9696;53.686;10.094;2023-04-28T00:31:08;10.03;;;6.30;;
19127;SDS011;9696;53.686;10.094;2023-04-28T00:33:38;9.27;;;5.47;;
19127;SDS011;9696;53.686;10.094;2023-04-28T00:36:08;13.70;;;5.90;;
19127;SDS011;9696;53.686;10.094;2023-04-28T00:38:37;10.00;;;5.60;;
19127;SDS011;9696;53.686;10.094;2023-04-28T00:41:08;12.00;;;5.97;;
19127;SDS011;9696;53.686;10.094;2023-04-28T00:43:44;9.70;;;6.13;;
19127;SDS011;9696;53.686;10.094;2023-04-28T00:46:19;11.53;;;6.63;;
19127;SDS011;9696;53.686;10.094;2023-04-28T00:48:50;10.47;;;5.63;;
19127;SDS011;9696;53.686;10.094;2023-04-28T00:51:19;10.33;;;5.90;;
19127;SDS011;9696;53.686;10.094;2023-04-28T00:53:48;8.40;;;5.07;;
19127;SDS011;9696;53.686;10.094;2023-04-28T00:56:18;11.20;;;6.40;;
19127;SDS011;9696;53.686;10.094;2023-04-28T00:58:48;10.53;;;6.03;;
19127;SDS011;9696;53.686;10.094;2023-04-28T01:01:18;11.30;;;6.20;;
19127;SDS011;9696;53.686;10.094;2023-04-28T01:03:48;10.50;;;5.67;;
19127;SDS011;9696;53.686;10.094;2023-04-28T01:06:18;8.93;;;5.53;;
19127;SDS011;9696;53.686;10.094;2023-04-28T01:08:50;8.07;;;5.03;;
19127;SDS011;9696;53.686;10.094;2023-04-28T01:11:19;9.43;;;6.47;;
19127;SDS011;9696;53.686;10.094;2023-04-28T01:14:14;9.43;;;5.63;;
19127;SDS011;9696;53.686;10.094;2023-04-28T01:16:45;12.07;;;5.47;;
19127;SDS011;9696;53.686;10.094;2023-04-28T01:19:15;14.00;;;5.60;;
19127;SDS011;9696;53.686;10.094;2023-04-28T01:21:48;11.10;;;6.00;;
19127;SDS011;9696;53.686;10.094;2023-04-28T01:24:23;10.53;;;5.83;;
19127;SDS011;9696;53.686;10.094;2023-04-28T01:26:53;8.03;;;4.60;;
19127;SDS011;9696;53.686;10.094;2023-04-28T01:29:22;11.17;;;5.83;;
19127;SDS011;9696;53.686;10.094;2023-04-28T01:31:52;10.03;;;5.50;;
19127;SDS011;9696;53.686;10.094;2023-04-28T01:34:21;11.70;;;6.13;;
19127;SDS011;9696;53.686;10.094;2023-04-28T01:36:50;13.47;;;5.77;;
19127;SDS011;9696;53.686;10.094;2023-04-28T01:39:20;10.00;;;5.57;;
19127;SDS011;9696;53.686;10.094;2023-04-28T01:41:50;9.47;;;5.60;;
19127;SDS011;9696;53.686;10.094;2023-04-28T01:44:19;14.17;;;5.87;;
19127;SDS011;9696;53.686;10.094;2023-04-28T01:46:48;11.50;;;6.17;;
19127;SDS011;9696;53.686;10.094;2023-04-28T01:49:18;11.30;;;6.03;;
19127;SDS011;9696;53.686;10.094;2023-04-28T01:51:47;14.90;;;6.23;;
19127;SDS011;9696;53.686;10.094;2023-04-28T01:54:16;9.30;;;6.13;;
19127;SDS011;9696;53.686;10.094;2023-04-28T01:56:45;16.20;;;5.83;;
19127;SDS011;9696;53.686;10.094;2023-04-28T01:59:18;15.40;;;6.10;;
19127;SDS011;9696;53.686;10.094;2023-04-28T02:01:47;13.10;;;6.27;;
19127;SDS011;9696;53.686;10.094;2023-04-28T02:04:16;10.63;;;6.00;;
19127;SDS011;9696;53.686;10.094;2023-04-28T02:06:45;9.27;;;5.47;;
19127;SDS011;9696;53.686;10.094;2023-04-28T02:09:15;10.93;;;5.47;;
19127;SDS011;9696;53.686;10.094;2023-04-28T02:11:44;13.60;;;6.47;;
19127;SDS011;9696;53.686;10.094;2023-04-28T02:14:13;11.90;;;6.00;;
19127;SDS011;9696;53.686;10.094;2023-04-28T02:16:44;13.47;;;6.83;;
19127;SDS011;9696;53.686;10.094;2023-04-28T02:19:13;12.67;;;6.53;;
19127;SDS011;9696;53.686;10.094;2023-04-28T02:21:42;9.57;;;6.07;;
19127;SDS011;9696;53.686;10.094;2023-04-28T02:24:12;10.47;;;6.37;;
19127;SDS011;9696;53.686;10.094;2023-04-28T02:26:42;15.50;;;6.60;;
19127;SDS011;9696;53.686;10.094;2023-04-28T02:29:11;16.43;;;6.73;;
19127;SDS011;9696;53.686;10.094;2023-04-28T02:31:40;8.83;;;6.00;;
19127;SDS011;9696;53.686;10.094;2023-04-28T02:34:12;14.33;;;5.90;;
19127;SDS011;9696;53.686;10.094;2023-04-28T02:36:42;11.83;;;6.20;;
19127;SDS011;9696;53.686;10.094;2023-04-28T02:39:11;17.63;;;6.10;;
19127;SDS011;9696;53.686;10.094;2023-04-28T02:41:40;17.20;;;6.90;;
19127;SDS011;9696;53.686;10.094;2023-04-28T02:44:09;12.93;;;7.03;;
19127;SDS011;9696;53.686;10.094;2023-04-28T02:46:38;12.57;;;5.87;;
19127;SDS011;9696;53.686;10.094;2023-04-28T02:49:08;12.80;;;6.50;;
19127;SDS011;9696;53.686;10.094;2023-04-28T02:51:38;14.13;;;6.77;;
19127;SDS011;9696;53.686;10.094;2023-04-28T02:54:07;14.20;;;7.23;;
19127;SDS011;9696;53.686;10.094;2023-04-28T02:56:37;9.63;;;5.30;;
19127;SDS011;9696;53.686;10.094;2023-04-28T02:59:06;11.40;;;6.50;;
19127;SDS011;9696;53.686;10.094;2023-04-28T03:01:35;11.10;;;6.70;;
19127;SDS011;9696;53.686;10.094;2023-04-28T03:04:05;12.20;;;6.00;;
19127;SDS011;9696;53.686;10.094;2023-04-28T03:06:34;14.13;;;7.50;;
19127;SDS011;9696;53.686;10.094;2023-04-28T03:09:05;12.93;;;7.17;;
19127;SDS011;9696;53.686;10.094;2023-04-28T03:11:34;15.73;;;6.47;;
19127;SDS011;9696;53.686;10.094;2023-04-28T03:14:04;15.00;;;7.50;;
19127;SDS011;9696;53.686;10.094;2023-04-28T03:16:33;16.50;;;7.33;;
19127;SDS011;9696;53.686;10.094;2023-04-28T03:19:02;14.23;;;7.43;;
19127;SDS011;9696;53.686;10.094;2023-04-28T03:21:31;14.00;;;6.50;;
19127;SDS011;9696;53.686;10.094;2023-04-28T03:24:00;13.40;;;7.43;;
19127;SDS011;9696;53.686;10.094;2023-04-28T03:26:33;12.33;;;7.27;;
19127;SDS011;9696;53.686;10.094;2023-04-28T03:29:03;13.53;;;7.20;;
19127;SDS011;9696;53.686;10.094;2023-04-28T03:31:32;13.67;;;7.30;;
19127;SDS011;9696;53.686;10.094;2023-04-28T03:34:02;13.50;;;7.43;;
19127;SDS011;9696;53.686;10.094;2023-04-28T03:36:31;26.40;;;8.20;;
19127;SDS011;9696;53.686;10.094;2023-04-28T03:39:07;16.07;;;8.13;;
19127;SDS011;9696;53.686;10.094;2023-04-28T03:41:38;17.53;;;7.30;;
19127;SDS011;9696;53.686;10.094;2023-04-28T03:44:36;14.57;;;7.53;;
19127;SDS011;9696;53.686;10.094;2023-04-28T03:47:06;12.10;;;6.63;;
19127;SDS011;9696;53.686;10.094;2023-04-28T03:49:36;13.70;;;7.67;;
19127;SDS011;9696;53.686;10.094;2023-04-28T03:52:05;18.80;;;7.80;;
19127;SDS011;9696;53.686;10.094;2023-04-28T03:54:34;14.90;;;7.80;;
19127;SDS011;9696;53.686;10.094;2023-04-28T03:57:05;16.37;;;8.60;;
19127;SDS011;9696;53.686;10.094;2023-04-28T03:59:34;15.67;;;7.87;;
19127;SDS011;9696;53.686;10.094;2023-04-28T04:02:03;17.60;;;8.10;;
19127;SDS011;9696;53.686;10.094;2023-04-28T04:04:32;16.70;;;8.40;;
19127;SDS011;9696;53.686;10.094;2023-04-28T04:07:02;16.87;;;8.47;;
19127;SDS011;9696;53.686;10.094;2023-04-28T04:09:32;13.43;;;7.53;;
19127;SDS011;9696;53.686;10.094;2023-04-28T04:12:01;18.00;;;8.50;;
19127;SDS011;9696;53.686;10.094;2023-04-28T04:14:31;17.37;;;8.63;;
19127;SDS011;9696;53.686;10.094;2023-04-28T04:17:01;15.53;;;7.97;;
19127;SDS011;9696;53.686;10.094;2023-04-28T04:19:30;16.10;;;7.43;;
19127;SDS011;9696;53.686;10.094;2023-04-28T04:21:59;13.97;;;7.30;;
19127;SDS011;9696;53.686;10.094;2023-04-28T04:24:29;15.13;;;7.93;;
19127;SDS011;9696;53.686;10.094;2023-04-28T04:26:58;14.87;;;7.23;;
19127;SDS011;9696;53.686;10.094;2023-04-28T04:29:34;15.53;;;8.20;;
19127;SDS011;9696;53.686;10.094;2023-04-28T04:32:08;16.00;;;7.60;;
19127;SDS011;9696;53.686;10.094;2023-04-28T04:34:37;15.27;;;7.73;;
19127;SDS011;9696;53.686;10.094;2023-04-28T04:37:06;17.07;;;9.00;;
19127;SDS011;9696;53.686;10.094;2023-04-28T04:39:41;15.53;;;8.00;;
19127;SDS011;9696;53.686;10.094;2023-04-28T04:42:11;17.47;;;8.07;;
19127;SDS011;9696;53.686;10.094;2023-04-28T04:45:10;15.23;;;7.97;;
19127;SDS011;9696;53.686;10.094;2023-04-28T04:47:40;15.93;;;7.30;;
19127;SDS011;9696;53.686;10.094;2023-04-28T04:50:10;17.00;;;7.73;;
19127;SDS011;9696;53.686;10.094;2023-04-28T04:52:40;22.97;;;7.40;;
19127;SDS011;9696;53.686;10.094;2023-04-28T04:55:09;16.50;;;8.17;;
19127;SDS011;9696;53.686;10.094;2023-04-28T04:57:40;13.23;;;7.30;;
19127;SDS011;9696;53.686;10.094;2023-04-28T05:00:18;17.87;;;7.87;;
19127;SDS011;9696;53.686;10.094;2023-04-28T05:02:48;16.47;;;7.87;;
19127;SDS011;9696;53.686;10.094;2023-04-28T05:05:18;17.73;;;7.17;;
19127;SDS011;9696;53.686;10.094;2023-04-28T05:08:04;11.83;;;7.13;;
19127;SDS011;9696;53.686;10.094;2023-04-28T05:10:34;14.87;;;7.73;;
19127;SDS011;9696;53.686;10.094;2023-04-28T05:13:03;18.03;;;7.47;;
19127;SDS011;9696;53.686;10.094;2023-04-28T05:15:34;12.53;;;6.43;;
19127;SDS011;9696;53.686;10.094;2023-04-28T05:18:26;16.73;;;8.23;;
19127;SDS011;9696;53.686;10.094;2023-04-28T05:20:55;25.70;;;8.50;;
19127;SDS011;9696;53.686;10.094;2023-04-28T05:23:25;17.30;;;8.07;;
19127;SDS011;9696;53.686;10.094;2023-04-28T05:25:54;16.33;;;7.77;;
19127;SDS011;9696;53.686;10.094;2023-04-28T05:28:24;15.60;;;7.37;;
19127;SDS011;9696;53.686;10.094;2023-04-28T05:30:56;19.30;;;8.40;;
19127;SDS011;9696;53.686;10.094;2023-04-28T05:33:25;14.93;;;7.83;;
19127;SDS011;9696;53.686;10.094;2023-04-28T05:35:54;14.43;;;7.00;;
19127;SDS011;9696;53.686;10.094;2023-04-28T05:38:23;10.60;;;6.30;;
19127;SDS011;9696;53.686;10.094;2023-04-28T05:40:53;13.23;;;6.43;;
19127;SDS011;9696;53.686;10.094;2023-04-28T05:43:23;16.20;;;6.77;;
19127;SDS011;9696;53.686;10.094;2023-04-28T05:45:52;15.23;;;6.90;;
19127;SDS011;9696;53.686;10.094;2023-04-28T05:48:23;11.00;;;6.27;;
19127;SDS011;9696;53.686;10.094;2023-04-28T05:50:53;10.67;;;5.77;;
19127;SDS011;9696;53.686;10.094;2023-04-28T05:53:22;8.80;;;5.70;;
19127;SDS011;9696;53.686;10.094;2023-04-28T05:55:52;12.83;;;5.43;;
19127;SDS011;9696;53.686;10.094;2023-04-28T05:58:21;7.23;;;4.40;;
19127;SDS011;9696;53.686;10.094;2023-04-28T06:00:52;3.90;;;2.97;;
19127;SDS011;9696;53.686;10.094;2023-04-28T06:03:25;5.83;;;3.30;;
19127;SDS011;9696;53.686;10.094;2023-04-28T06:05:54;5.47;;;3.40;;
19127;SDS011;9696;53.686;10.094;2023-04-28T06:08:24;14.13;;;3.23;;
19127;SDS011;9696;53.686;10.094;2023-04-28T06:10:53;6.57;;;3.10;;
19127;SDS011;9696;53.686;10.094;2023-04-28T06:13:22;6.50;;;2.93;;
19127;SDS011;9696;53.686;10.094;2023-04-28T06:15:51;9.80;;;2.90;;
19127;SDS011;9696;53.686;10.094;2023-04-28T06:18:21;7.57;;;2.67;;
19127;SDS011;9696;53.686;10.094;2023-04-28T06:20:51;5.13;;;2.50;;
19127;SDS011;9696;53.686;10.094;2023-04-28T06:23:20;3.07;;;1.83;;
19127;SDS011;9696;53.686;10.094;2023-04-28T06:25:50;5.17;;;2.20;;
19127;SDS011;9696;53.686;10.094;2023-04-28T06:28:19;3.70;;;2.13;;
19127;SDS011;9696;53.686;10.094;2023-04-28T06:30:48;5.50;;;2.47;;
19127;SDS011;9696;53.686;10.094;2023-04-28T06:33:17;3.92;;;2.42;;
19127;SDS011;9696;53.686;10.094;2023-04-28T06:35:47;4.10;;;1.80;;
19127;SDS011;9696;53.686;10.094;2023-04-28T06:38:18;3.10;;;1.58;;
19127;SDS011;9696;53.686;10.094;2023-04-28T06:40:47;2.78;;;1.60;;
19127;SDS011;9696;53.686;10.094;2023-04-28T06:43:18;10.07;;;1.70;;
19127;SDS011;9696;53.686;10.094;2023-04-28T06:46:05;3.65;;;1.60;;
19127;SDS011;9696;53.686;10.094;2023-04-28T06:48:35;5.47;;;1.80;;
19127;SDS011;9696;53.686;10.094;2023-04-28T06:51:05;2.17;;;1.40;;
19127;SDS011;9696;53.686;10.094;2023-04-28T06:53:35;3.10;;;1.30;;
19127;SDS011;9696;53.686;10.094;2023-04-28T06:56:07;6.05;;;1.40;;
19127;SDS011;9696;53.686;10.094;2023-04-28T06:58:37;4.88;;;1.50;;
19127;SDS011;9696;53.686;10.094;2023-04-28T07:01:07;5.22;;;1.45;;
19127;SDS011;9696;53.686;10.094;2023-04-28T07:03:36;3.13;;;1.67;;
19127;SDS011;9696;53.686;10.094;2023-04-28T07:06:05;4.85;;;1.60;;
19127;SDS011;9696;53.686;10.094;2023-04-28T07:08:37;6.57;;;2.03;;
19127;SDS011;9696;53.686;10.094;2023-04-28T07:11:07;8.00;;;2.22;;
19127;SDS011;9696;53.686;10.094;2023-04-28T07:13:36;6.47;;;2.60;;
19127;SDS011;9696;53.686;10.094;2023-04-28T07:16:05;5.03;;;1.80;;
19127;SDS011;9696;53.686;10.094;2023-04-28T07:18:36;5.57;;;1.65;;
19127;SDS011;9696;53.686;10.094;2023-04-28T07:21:05;6.18;;;1.58;;
19127;SDS011;9696;53.686;10.094;2023-04-28T07:23:35;3.15;;;1.48;;
19127;SDS011;9696;53.686;10.094;2023-04-28T07:26:06;2.43;;;1.70;;
19127;SDS011;9696;53.686;10.094;2023-04-28T07:28:35;3.75;;;1.70;;
19127;SDS011;9696;53.686;10.094;2023-04-28T07:31:05;3.85;;;1.60;;
19127;SDS011;9696;53.686;10.094;2023-04-28T07:33:34;3.55;;;1.75;;
19127;SDS011;9696;53.686;10.094;2023-04-28T07:36:03;4.28;;;1.50;;
19127;SDS011;9696;53.686;10.094;2023-04-28T07:38:33;2.55;;;1.65;;
19127;SDS011;9696;53.686;10.094;2023-04-28T07:41:04;1.95;;;1.52;;
19127;SDS011;9696;53.686;10.094;2023-04-28T07:43:37;4.15;;;1.45;;
19127;SDS011;9696;53.686;10.094;2023-04-28T07:46:06;2.65;;;1.73;;
19127;SDS011;9696;53.686;10.094;2023-04-28T07:48:36;3.20;;;1.75;;
19127;SDS011;9696;53.686;10.094;2023-04-28T07:51:05;4.25;;;1.25;;
19127;SDS011;9696;53.686;10.094;2023-04-28T07:53:34;2.80;;;1.70;;
19127;SDS011;9696;53.686;10.094;2023-04-28T07:56:05;4.05;;;1.50;;
19127;SDS011;9696;53.686;10.094;2023-04-28T07:58:34;3.45;;;1.48;;
19127;SDS011;9696;53.686;10.094;2023-04-28T08:01:04;3.70;;;1.30;;
19127;SDS011;9696;53.686;10.094;2023-04-28T08:03:33;4.95;;;1.80;;
19127;SDS011;9696;53.686;10.094;2023-04-28T08:06:02;3.40;;;1.45;;
19127;SDS011;9696;53.686;10.094;2023-04-28T08:08:32;9.80;;;1.65;;
19127;SDS011;9696;53.686;10.094;2023-04-28T08:11:01;2.83;;;1.48;;
19127;SDS011;9696;53.686;10.094;2023-04-28T08:13:32;2.67;;;1.60;;
19127;SDS011;9696;53.686;10.094;2023-04-28T08:16:01;9.30;;;1.90;;
19127;SDS011;9696;53.686;10.094;2023-04-28T08:18:31;4.15;;;1.52;;
19127;SDS011;9696;53.686;10.094;2023-04-28T08:21:00;4.93;;;1.55;;
19127;SDS011;9696;53.686;10.094;2023-04-28T08:23:29;3.15;;;1.52;;
19127;SDS011;9696;53.686;10.094;2023-04-28T08:25:58;6.63;;;1.88;;
19127;SDS011;9696;53.686;10.094;2023-04-28T08:28:27;4.45;;;1.88;;
19127;SDS011;9696;53.686;10.094;2023-04-28T08:30:58;3.33;;;1.50;;
19127;SDS011;9696;53.686;10.094;2023-04-28T08:33:27;6.18;;;1.75;;
19127;SDS011;9696;53.686;10.094;2023-04-28T08:35:56;12.38;;;1.77;;
19127;SDS011;9696;53.686;10.094;2023-04-28T08:38:26;4.10;;;1.73;;
19127;SDS011;9696;53.686;10.094;2023-04-28T08:40:55;4.70;;;1.77;;
19127;SDS011;9696;53.686;10.094;2023-04-28T08:43:24;3.10;;;1.58;;
19127;SDS011;9696;53.686;10.094;2023-04-28T08:45:54;4.97;;;2.15;;
19127;SDS011;9696;53.686;10.094;2023-04-28T08:48:25;7.53;;;1.70;;
19127;SDS011;9696;53.686;10.094;2023-04-28T08:50:55;2.17;;;1.60;;
19127;SDS011;9696;53.686;10.094;2023-04-28T08:53:28;7.32;;;1.83;;
19127;SDS011;9696;53.686;10.094;2023-04-28T08:56:09;11.85;;;1.90;;
19127;SDS011;9696;53.686;10.094;2023-04-28T08:58:43;3.88;;;1.52;;
19127;SDS011;9696;53.686;10.094;2023-04-28T09:01:12;4.78;;;1.90;;
19127;SDS011;9696;53.686;10.094;2023-04-28T09:03:44;2.83;;;1.80;;
19127;SDS011;9696;53.686;10.094;2023-04-28T09:06:16;8.52;;;2.03;;
19127;SDS011;9696;53.686;10.094;2023-04-28T09:08:46;12.27;;;1.98;;
19127;SDS011;9696;53.686;10.094;2023-04-28T09:11:16;5.20;;;1.98;;
19127;SDS011;9696;53.686;10.094;2023-04-28T09:13:47;4.68;;;1.70;;
19127;SDS011;9696;53.686;10.094;2023-04-28T09:16:17;4.20;;;1.77;;
19127;SDS011;9696;53.686;10.094;2023-04-28T09:18:55;5.03;;;2.00;;
19127;SDS011;9696;53.686;10.094;2023-04-28T09:21:25;6.30;;;2.00;;
19127;SDS011;9696;53.686;10.094;2023-04-28T09:23:56;1.90;;;1.60;;
19127;SDS011;9696;53.686;10.094;2023-04-28T09:26:26;9.43;;;2.20;;
19127;SDS011;9696;53.686;10.094;2023-04-28T09:29:16;5.10;;;2.22;;
19127;SDS011;9696;53.686;10.094;2023-04-28T09:31:47;3.60;;;1.85;;
19127;SDS011;9696;53.686;10.094;2023-04-28T09:34:19;4.70;;;2.10;;
19127;SDS011;9696;53.686;10.094;2023-04-28T09:36:49;4.05;;;2.00;;
19127;SDS011;9696;53.686;10.094;2023-04-28T09:39:27;3.50;;;1.90;;
19127;SDS011;9696;53.686;10.094;2023-04-28T09:41:58;13.05;;;2.58;;
19127;SDS011;9696;53.686;10.094;2023-04-28T09:44:30;6.13;;;2.63;;
19127;SDS011;9696;53.686;10.094;2023-04-28T09:46:59;4.57;;;2.50;;
19127;SDS011;9696;53.686;10.094;2023-04-28T09:49:53;9.68;;;1.85;;
19127;SDS011;9696;53.686;10.094;2023-04-28T09:52:23;6.55;;;2.58;;
19127;SDS011;9696;53.686;10.094;2023-04-28T09:54:53;3.80;;;2.25;;
19127;SDS011;9696;53.686;10.094;2023-04-28T09:57:23;6.75;;;2.00;;
19127;SDS011;9696;53.686;10.094;2023-04-28T09:59:53;5.40;;;2.05;;
19127;SDS011;9696;53.686;10.094;2023-04-28T10:02:24;8.55;;;2.38;;
19127;SDS011;9696;53.686;10.094;2023-04-28T10:04:58;5.05;;;2.40;;
19127;SDS011;9696;53.686;10.094;2023-04-28T10:07:28;5.18;;;2.78;;
19127;SDS011;9696;53.686;10.094;2023-04-28T10:10:01;5.25;;;2.60;;
19127;SDS011;9696;53.686;10.094;2023-04-28T10:12:31;10.18;;;2.47;;
19127;SDS011;9696;53.686;10.094;2023-04-28T10:15:01;7.45;;;2.65;;
19127;SDS011;9696;53.686;10.094;2023-04-28T10:17:31;4.57;;;2.53;;
19127;SDS011;9696;53.686;10.094;2023-04-28T10:20:02;12.02;;;2.50;;
19127;SDS011;9696;53.686;10.094;2023-04-28T10:22:38;7.43;;;2.65;;
19127;SDS011;9696;53.686;10.094;2023-04-28T10:25:24;5.80;;;2.60;;
19127;SDS011;9696;53.686;10.094;2023-04-28T10:27:55;4.10;;;2.28;;
19127;SDS011;9696;53.686;10.094;2023-04-28T10:30:26;5.10;;;2.70;;
19127;SDS011;9696;53.686;10.094;2023-04-28T10:35:54;4.32;;;2.28;;
19127;SDS011;9696;53.686;10.094;2023-04-28T10:38:23;4.32;;;2.60;;
19127;SDS011;9696;53.686;10.094;2023-04-28T10:40:52;7.40;;;2.35;;
19127;SDS011;9696;53.686;10.094;2023-04-28T10:43:34;5.97;;;2.30;;
19127;SDS011;9696;53.686;10.094;2023-04-28T10:46:05;5.90;;;2.60;;
19127;SDS011;9696;53.686;10.094;2023-04-28T10:51:34;6.28;;;2.15;;
19127;SDS011;9696;53.686;10.094;2023-04-28T10:54:13;6.20;;;2.40;;
19127;SDS011;9696;53.686;10.094;2023-04-28T10:59:45;7.25;;;2.60;;
19127;SDS011;9696;53.686;10.094;2023-04-28T11:13:48;6.55;;;2.30;;
19127;SDS011;9696;53.686;10.094;2023-04-28T11:16:19;5.00;;;2.00;;
19127;SDS011;9696;53.686;10.094;2023-04-28T11:18:51;9.88;;;2.15;;
19127;SDS011;9696;53.686;10.094;2023-04-28T11:21:33;7.03;;;2.60;;
19127;SDS011;9696;53.686;10.094;2023-04-28T11:24:07;3.63;;;2.10;;
19127;SDS011;9696;53.686;10.094;2023-04-28T11:26:39;6.75;;;2.35;;
19127;SDS011;9696;53.686;10.094;2023-04-28T11:29:09;6.13;;;2.63;;
19127;SDS011;9696;53.686;10.094;2023-04-28T11:31:45;5.63;;;2.10;;
19127;SDS011;9696;53.686;10.094;2023-04-28T11:34:17;6.60;;;3.10;;
19127;SDS011;9696;53.686;10.094;2023-04-28T11:36:48;6.18;;;2.65;;
19127;SDS011;9696;53.686;10.094;2023-04-28T11:39:24;4.57;;;2.03;;
19127;SDS011;9696;53.686;10.094;2023-04-28T11:41:57;5.57;;;2.20;;
19127;SDS011;9696;53.686;10.094;2023-04-28T11:44:29;8.15;;;2.10;;
19127;SDS011;9696;53.686;10.094;2023-04-28T11:46:59;6.20;;;2.03;;
19127;SDS011;9696;53.686;10.094;2023-04-28T11:49:30;6.93;;;2.33;;
19127;SDS011;9696;53.686;10.094;2023-04-28T11:52:08;3.95;;;2.20;;
19127;SDS011;9696;53.686;10.094;2023-04-28T11:54:38;5.95;;;2.40;;
19127;SDS011;9696;53.686;10.094;2023-04-28T11:57:17;6.25;;;2.25;;
19127;SDS011;9696;53.686;10.094;2023-04-28T11:59:46;4.22;;;2.30;;
19127;SDS011;9696;53.686;10.094;2023-04-28T12:02:23;4.70;;;2.20;;
19127;SDS011;9696;53.686;10.094;2023-04-28T12:04:55;5.82;;;2.65;;
19127;SDS011;9696;53.686;10.094;2023-04-28T12:07:38;4.82;;;2.35;;
19127;SDS011;9696;53.686;10.094;2023-04-28T12:10:10;3.20;;;2.10;;
19127;SDS011;9696;53.686;10.094;2023-04-28T12:12:43;6.68;;;2.60;;
19127;SDS011;9696;53.686;10.094;2023-04-28T12:15:18;6.82;;;2.25;;
19127;SDS011;9696;53.686;10.094;2023-04-28T12:17:50;5.53;;;2.10;;
19127;SDS011;9696;53.686;10.094;2023-04-28T12:20:33;6.20;;;2.22;;
19127;SDS011;9696;53.686;10.094;2023-04-28T12:23:03;10.23;;;2.45;;
19127;SDS011;9696;53.686;10.094;2023-04-28T12:25:41;7.13;;;2.08;;
19127;SDS011;9696;53.686;10.094;2023-04-28T12:28:12;5.63;;;2.00;;
19127;SDS011;9696;53.686;10.094;2023-04-28T12:30:42;3.72;;;2.22;;
19127;SDS011;9696;53.686;10.094;2023-04-28T12:33:21;5.43;;;2.30;;
19127;SDS011;9696;53.686;10.094;2023-04-28T12:35:51;4.40;;;2.17;;
19127;SDS011;9696;53.686;10.094;2023-04-28T12:38:23;12.25;;;2.20;;
19127;SDS011;9696;53.686;10.094;2023-04-28T12:40:53;4.85;;;2.00;;
19127;SDS011;9696;53.686;10.094;2023-04-28T12:43:23;6.95;;;2.30;;
19127;SDS011;9696;53.686;10.094;2023-04-28T12:45:54;5.47;;;1.85;;
19127;SDS011;9696;53.686;10.094;2023-04-28T12:48:24;7.97;;;2.70;;
19127;SDS011;9696;53.686;10.094;2023-04-28T12:50:53;4.07;;;2.47;;
19127;SDS011;9696;53.686;10.094;2023-04-28T12:53:23;4.97;;;2.63;;
19127;SDS011;9696;53.686;10.094;2023-04-28T12:55:52;5.05;;;2.55;;
19127;SDS011;9696;53.686;10.094;2023-04-28T12:58:21;9.02;;;3.17;;
19127;SDS011;9696;53.686;10.094;2023-04-28T13:00:52;9.93;;;3.17;;
19127;SDS011;9696;53.686;10.094;2023-04-28T13:03:21;6.28;;;2.70;;
19127;SDS011;9696;53.686;10.094;2023-04-28T13:05:50;8.82;;;2.67;;
19127;SDS011;9696;53.686;10.094;2023-04-28T13:08:20;7.85;;;3.00;;
19127;SDS011;9696;53.686;10.094;2023-04-28T13:10:49;7.05;;;3.17;;
19127;SDS011;9696;53.686;10.094;2023-04-28T13:13:18;5.88;;;2.80;;
19127;SDS011;9696;53.686;10.094;2023-04-28T13:15:48;7.43;;;3.58;;
19127;SDS011;9696;53.686;10.094;2023-04-28T13:18:18;7.18;;;3.22;;
19127;SDS011;9696;53.686;10.094;2023-04-28T13:20:49;5.68;;;2.65;;
19127;SDS011;9696;53.686;10.094;2023-04-28T13:23:18;10.10;;;3.28;;
19127;SDS011;9696;53.686;10.094;2023-04-28T13:25:47;7.25;;;2.92;;
19127;SDS011;9696;53.686;10.094;2023-04-28T13:28:17;6.38;;;2.88;;
19127;SDS011;9696;53.686;10.094;2023-04-28T13:30:46;5.80;;;2.80;;
19127;SDS011;9696;53.686;10.094;2023-04-28T13:33:17;5.15;;;2.53;;
19127;SDS011;9696;53.686;10.094;2023-04-28T13:35:46;5.40;;;2.67;;
19127;SDS011;9696;53.686;10.094;2023-04-28T13:38:15;5.68;;;3.05;;
19127;SDS011;9696;53.686;10.094;2023-04-28T13:40:45;4.72;;;2.60;;
19127;SDS011;9696;53.686;10.094;2023-04-28T13:43:14;11.95;;;2.83;;
19127;SDS011;9696;53.686;10.094;2023-04-28T13:45:43;4.25;;;2.60;;
19127;SDS011;9696;53.686;10.094;2023-04-28T13:48:14;7.00;;;2.80;;
19127;SDS011;9696;53.686;10.094;2023-04-28T13:50:43;5.80;;;2.60;;
19127;SDS011;9696;53.686;10.094;2023-04-28T13:53:13;12.07;;;2.88;;
19127;SDS011;9696;53.686;10.094;2023-04-28T13:55:43;15.93;;;2.88;;
19127;SDS011;9696;53.686;10.094;2023-04-28T13:58:14;7.28;;;2.35;;
19127;SDS011;9696;53.686;10.094;2023-04-28T14:00:43;4.07;;;2.53;;
19127;SDS011;9696;53.686;10.094;2023-04-28T14:03:12;7.50;;;2.65;;
19127;SDS011;9696;53.686;10.094;2023-04-28T14:05:43;6.50;;;2.88;;
19127;SDS011;9696;53.686;10.094;2023-04-28T14:08:16;4.47;;;2.42;;
19127;SDS011;9696;53.686;10.094;2023-04-28T14:10:46;11.45;;;3.00;;
19127;SDS011;9696;53.686;10.094;2023-04-28T14:13:16;13.48;;;3.03;;
19127;SDS011;9696;53.686;10.094;2023-04-28T14:15:46;4.28;;;2.80;;
19127;SDS011;9696;53.686;10.094;2023-04-28T14:18:26;4.28;;;2.47;;
19127;SDS011;9696;53.686;10.094;2023-04-28T14:20:55;6.03;;;2.70;;
19127;SDS011;9696;53.686;10.094;2023-04-28T14:23:24;4.20;;;2.40;;
19127;SDS011;9696;53.686;10.094;2023-04-28T14:25:54;5.88;;;2.58;;
19127;SDS011;9696;53.686;10.094;2023-04-28T14:28:24;5.65;;;2.85;;
19127;SDS011;9696;53.686;10.094;2023-04-28T14:30:53;7.30;;;2.22;;
19127;SDS011;9696;53.686;10.094;2023-04-28T14:33:22;6.63;;;2.83;;
19127;SDS011;9696;53.686;10.094;2023-04-28T14:35:53;8.98;;;3.00;;
19127;SDS011;9696;53.686;10.094;2023-04-28T14:38:22;4.75;;;2.45;;
19127;SDS011;9696;53.686;10.094;2023-04-28T14:40:51;3.33;;;2.17;;
19127;SDS011;9696;53.686;10.094;2023-04-28T14:43:20;5.45;;;2.40;;
19127;SDS011;9696;53.686;10.094;2023-04-28T14:45:49;11.70;;;2.75;;
19127;SDS011;9696;53.686;10.094;2023-04-28T14:48:19;7.10;;;2.72;;
19127;SDS011;9696;53.686;10.094;2023-04-28T14:50:48;3.33;;;2.40;;
19127;SDS011;9696;53.686;10.094;2023-04-28T14:53:19;11.48;;;2.40;;
19127;SDS011;9696;53.686;10.094;2023-04-28T14:55:49;4.30;;;2.58;;
19127;SDS011;9696;53.686;10.094;2023-04-28T14:58:20;4.93;;;2.40;;
19127;SDS011;9696;53.686;10.094;2023-04-28T15:00:49;11.63;;;3.00;;
19127;SDS011;9696;53.686;10.094;2023-04-28T15:03:19;5.50;;;2.88;;
19127;SDS011;9696;53.686;10.094;2023-04-28T15:05:48;7.25;;;2.85;;
19127;SDS011;9696;53.686;10.094;2023-04-28T15:08:17;4.78;;;2.70;;
19127;SDS011;9696;53.686;10.094;2023-04-28T15:10:48;6.13;;;2.95;;
19127;SDS011;9696;53.686;10.094;2023-04-28T15:13:17;8.18;;;2.80;;
19127;SDS011;9696;53.686;10.094;2023-04-28T15:15:47;12.48;;;2.47;;
19127;SDS011;9696;53.686;10.094;2023-04-28T15:18:17;12.13;;;3.03;;
19127;SDS011;9696;53.686;10.094;2023-04-28T15:20:46;8.13;;;3.22;;
19127;SDS011;9696;53.686;10.094;2023-04-28T15:23:16;9.57;;;2.75;;
19127;SDS011;9696;53.686;10.094;2023-04-28T15:25:47;4.85;;;2.72;;